sensor_id;sensor_type;location;lat;lon;timestamp;temperature;humidity
39325;DHT22;25037;49.488;9.900;2023-03-11T00:00:53;5.40;60.20
39325;DHT22;25037;49.488;9.900;2023-03-11T00:03:21;5.40;60.30
39325;DHT22;25037;49.488;9.900;2023-03-11T00:05:52;5.30;60.40
39325;DHT22;25037;49.488;9.900;2023-03-11T00:08:23;5.30;60.60
39325;DHT22;25037;49.488;9.900;2023-03-11T00:10:53;5.30;60.60
39325;DHT22;25037;49.488;9.900;2023-03-11T00:13:21;5.30;60.70
39325;DHT22;25037;49.488;9.900;2023-03-11T00:15:51;5.30;60.80
39325;DHT22;25037;49.488;9.900;2023-03-11T00:18:22;5.30;61.00
39325;DHT22;25037;49.488;9.900;2023-03-11T00:20:54;5.30;61.00
39325;DHT22;25037;49.488;9.900;2023-03-11T00:23:21;5.30;61.20
39325;DHT22;25037;49.488;9.900;2023-03-11T00:25:48;5.20;61.30
39325;DHT22;25037;49.488;9.900;2023-03-11T00:28:15;5.30;61.30
39325;DHT22;25037;49.488;9.900;2023-03-11T00:30:45;5.30;61.50
39325;DHT22;25037;49.488;9.900;2023-03-11T00:33:13;5.20;61.70
39325;DHT22;25037;49.488;9.900;2023-03-11T00:35:41;5.30;61.90
39325;DHT22;25037;49.488;9.900;2023-03-11T00:38:13;5.30;62.20
39325;DHT22;25037;49.488;9.900;2023-03-11T00:40:41;5.20;62.30
39325;DHT22;25037;49.488;9.900;2023-03-11T00:43:08;5.20;62.50
39325;DHT22;25037;49.488;9.900;2023-03-11T00:45:35;5.20;62.60
39325;DHT22;25037;49.488;9.900;2023-03-11T00:48:02;5.20;62.70
39325;DHT22;25037;49.488;9.900;2023-03-11T00:50:31;5.20;62.70
39325;DHT22;25037;49.488;9.900;2023-03-11T00:52:59;5.20;62.80
39325;DHT22;25037;49.488;9.900;2023-03-11T00:55:28;5.20;62.80
39325;DHT22;25037;49.488;9.900;2023-03-11T00:57:57;5.20;62.80
39325;DHT22;25037;49.488;9.900;2023-03-11T01:00:27;5.20;62.80
39325;DHT22;25037;49.488;9.900;2023-03-11T01:02:55;5.20;63.00
39325;DHT22;25037;49.488;9.900;2023-03-11T01:05:26;5.20;63.00
39325;DHT22;25037;49.488;9.900;2023-03-11T01:07:53;5.10;63.00
39325;DHT22;25037;49.488;9.900;2023-03-11T01:10:19;5.10;63.20
39325;DHT22;25037;49.488;9.900;2023-03-11T01:12:46;5.20;63.30
39325;DHT22;25037;49.488;9.900;2023-03-11T01:15:26;5.20;63.30
39325;DHT22;25037;49.488;9.900;2023-03-11T01:17:53;5.20;63.20
39325;DHT22;25037;49.488;9.900;2023-03-11T01:20:20;5.20;63.00
39325;DHT22;25037;49.488;9.900;2023-03-11T01:22:47;5.20;62.80
39325;DHT22;25037;49.488;9.900;2023-03-11T01:25:16;5.10;62.70
39325;DHT22;25037;49.488;9.900;2023-03-11T01:27:43;5.10;62.60
39325;DHT22;25037;49.488;9.900;2023-03-11T01:30:22;5.10;62.50
39325;DHT22;25037;49.488;9.900;2023-03-11T01:32:50;5.10;62.10
39325;DHT22;25037;49.488;9.900;2023-03-11T01:35:20;4.90;61.60
39325;DHT22;25037;49.488;9.900;2023-03-11T01:37:46;4.90;61.50
39325;DHT22;25037;49.488;9.900;2023-03-11T01:40:20;4.80;61.20
39325;DHT22;25037;49.488;9.900;2023-03-11T01:42:49;4.70;61.00
39325;DHT22;25037;49.488;9.900;2023-03-11T01:48:01;4.50;60.70
39325;DHT22;25037;49.488;9.900;2023-03-11T01:50:33;4.50;61.00
39325;DHT22;25037;49.488;9.900;2023-03-11T01:53:01;4.50;61.00
39325;DHT22;25037;49.488;9.900;2023-03-11T01:55:29;4.40;61.00
39325;DHT22;25037;49.488;9.900;2023-03-11T01:57:59;4.40;61.00
39325;DHT22;25037;49.488;9.900;2023-03-11T02:00:27;4.40;60.80
39325;DHT22;25037;49.488;9.900;2023-03-11T02:02:57;4.40;60.80
39325;DHT22;25037;49.488;9.900;2023-03-11T02:05:25;4.40;60.80
39325;DHT22;25037;49.488;9.900;2023-03-11T02:07:53;4.40;60.70
39325;DHT22;25037;49.488;9.900;2023-03-11T02:10:21;4.40;60.60
39325;DHT22;25037;49.488;9.900;2023-03-11T02:12:49;4.40;60.40
39325;DHT22;25037;49.488;9.900;2023-03-11T02:15:16;4.40;60.10
39325;DHT22;25037;49.488;9.900;2023-03-11T02:17:43;4.40;60.10
39325;DHT22;25037;49.488;9.900;2023-03-11T02:20:20;4.30;60.00
39325;DHT22;25037;49.488;9.900;2023-03-11T02:22:49;4.30;59.90
39325;DHT22;25037;49.488;9.900;2023-03-11T02:25:31;4.30;59.90
39325;DHT22;25037;49.488;9.900;2023-03-11T02:28:02;4.30;59.80
39325;DHT22;25037;49.488;9.900;2023-03-11T02:30:32;4.20;60.00
39325;DHT22;25037;49.488;9.900;2023-03-11T02:33:00;4.20;59.70
39325;DHT22;25037;49.488;9.900;2023-03-11T02:35:29;4.20;59.80
39325;DHT22;25037;49.488;9.900;2023-03-11T02:37:57;4.20;59.70
39325;DHT22;25037;49.488;9.900;2023-03-11T02:42:54;4.20;59.50
39325;DHT22;25037;49.488;9.900;2023-03-11T02:45:25;4.20;59.60
39325;DHT22;25037;49.488;9.900;2023-03-11T02:47:53;4.20;59.60
39325;DHT22;25037;49.488;9.900;2023-03-11T02:50:22;4.20;59.60
39325;DHT22;25037;49.488;9.900;2023-03-11T02:52:50;4.20;59.60
39325;DHT22;25037;49.488;9.900;2023-03-11T02:55:18;4.20;59.30
39325;DHT22;25037;49.488;9.900;2023-03-11T02:57:47;4.20;59.40
39325;DHT22;25037;49.488;9.900;2023-03-11T03:00:16;4.30;59.50
39325;DHT22;25037;49.488;9.900;2023-03-11T03:02:43;4.30;59.40
39325;DHT22;25037;49.488;9.900;2023-03-11T03:05:11;4.30;59.30
39325;DHT22;25037;49.488;9.900;2023-03-11T03:07:38;4.30;59.20
39325;DHT22;25037;49.488;9.900;2023-03-11T03:10:06;4.30;59.30
39325;DHT22;25037;49.488;9.900;2023-03-11T03:12:32;4.30;59.30
39325;DHT22;25037;49.488;9.900;2023-03-11T03:14:59;4.30;59.40
39325;DHT22;25037;49.488;9.900;2023-03-11T03:17:26;4.40;59.40
39325;DHT22;25037;49.488;9.900;2023-03-11T03:19:52;4.40;59.40
39325;DHT22;25037;49.488;9.900;2023-03-11T03:22:19;4.40;59.30
39325;DHT22;25037;49.488;9.900;2023-03-11T03:24:46;4.40;59.30
39325;DHT22;25037;49.488;9.900;2023-03-11T03:27:12;4.50;59.30
39325;DHT22;25037;49.488;9.900;2023-03-11T03:29:39;4.50;59.10
39325;DHT22;25037;49.488;9.900;2023-03-11T03:32:06;4.50;59.10
39325;DHT22;25037;49.488;9.900;2023-03-11T03:34:32;4.50;59.00
39325;DHT22;25037;49.488;9.900;2023-03-11T03:36:59;4.50;59.10
39325;DHT22;25037;49.488;9.900;2023-03-11T03:39:26;4.60;59.00
39325;DHT22;25037;49.488;9.900;2023-03-11T03:41:56;4.60;59.00
39325;DHT22;25037;49.488;9.900;2023-03-11T03:44:22;4.60;59.10
39325;DHT22;25037;49.488;9.900;2023-03-11T03:46:49;4.60;59.10
39325;DHT22;25037;49.488;9.900;2023-03-11T03:49:15;4.60;58.90
39325;DHT22;25037;49.488;9.900;2023-03-11T03:51:42;4.60;58.90
39325;DHT22;25037;49.488;9.900;2023-03-11T03:54:09;4.60;58.90
39325;DHT22;25037;49.488;9.900;2023-03-11T03:56:35;4.60;59.00
39325;DHT22;25037;49.488;9.900;2023-03-11T03:59:02;4.60;59.00
39325;DHT22;25037;49.488;9.900;2023-03-11T04:01:29;4.60;59.10
39325;DHT22;25037;49.488;9.900;2023-03-11T04:03:55;4.60;59.00
39325;DHT22;25037;49.488;9.900;2023-03-11T04:06:26;4.60;59.00
39325;DHT22;25037;49.488;9.900;2023-03-11T04:08:53;4.60;59.00
39325;DHT22;25037;49.488;9.900;2023-03-11T04:11:21;4.60;58.80
39325;DHT22;25037;49.488;9.900;2023-03-11T04:13:48;4.60;58.90
39325;DHT22;25037;49.488;9.900;2023-03-11T04:16:20;4.60;58.90
39325;DHT22;25037;49.488;9.900;2023-03-11T04:18:47;4.60;58.90
39325;DHT22;25037;49.488;9.900;2023-03-11T04:21:14;4.60;59.00
39325;DHT22;25037;49.488;9.900;2023-03-11T04:23:41;4.60;59.10
39325;DHT22;25037;49.488;9.900;2023-03-11T04:26:08;4.70;59.10
39325;DHT22;25037;49.488;9.900;2023-03-11T04:28:34;4.70;59.10
39325;DHT22;25037;49.488;9.900;2023-03-11T04:31:01;4.70;59.10
39325;DHT22;25037;49.488;9.900;2023-03-11T04:33:28;4.70;59.00
39325;DHT22;25037;49.488;9.900;2023-03-11T04:35:55;4.70;59.00
39325;DHT22;25037;49.488;9.900;2023-03-11T04:38:21;4.70;58.90
39325;DHT22;25037;49.488;9.900;2023-03-11T04:40:48;4.70;59.00
39325;DHT22;25037;49.488;9.900;2023-03-11T04:43:15;4.60;58.80
39325;DHT22;25037;49.488;9.900;2023-03-11T04:45:42;4.60;59.00
39325;DHT22;25037;49.488;9.900;2023-03-11T04:48:09;4.60;59.10
39325;DHT22;25037;49.488;9.900;2023-03-11T04:50:36;4.60;59.20
39325;DHT22;25037;49.488;9.900;2023-03-11T04:53:02;4.60;59.20
39325;DHT22;25037;49.488;9.900;2023-03-11T04:55:29;4.50;59.30
39325;DHT22;25037;49.488;9.900;2023-03-11T04:57:55;4.50;59.40
39325;DHT22;25037;49.488;9.900;2023-03-11T05:00:22;4.60;59.50
39325;DHT22;25037;49.488;9.900;2023-03-11T05:02:50;4.60;59.50
39325;DHT22;25037;49.488;9.900;2023-03-11T05:05:18;4.60;59.50
39325;DHT22;25037;49.488;9.900;2023-03-11T05:07:45;4.60;59.40
39325;DHT22;25037;49.488;9.900;2023-03-11T05:10:12;4.60;59.40
39325;DHT22;25037;49.488;9.900;2023-03-11T05:12:39;4.60;59.40
39325;DHT22;25037;49.488;9.900;2023-03-11T05:15:06;4.60;59.50
39325;DHT22;25037;49.488;9.900;2023-03-11T05:17:33;4.60;59.60
39325;DHT22;25037;49.488;9.900;2023-03-11T05:20:00;4.60;59.70
39325;DHT22;25037;49.488;9.900;2023-03-11T05:22:26;4.60;59.70
39325;DHT22;25037;49.488;9.900;2023-03-11T05:24:53;4.70;59.70
39325;DHT22;25037;49.488;9.900;2023-03-11T05:27:19;4.70;59.80
39325;DHT22;25037;49.488;9.900;2023-03-11T05:29:46;4.70;59.70
39325;DHT22;25037;49.488;9.900;2023-03-11T05:32:13;4.70;59.80
39325;DHT22;25037;49.488;9.900;2023-03-11T05:34:40;4.70;59.90
39325;DHT22;25037;49.488;9.900;2023-03-11T05:37:07;4.70;59.70
39325;DHT22;25037;49.488;9.900;2023-03-11T05:39:34;4.70;59.70
39325;DHT22;25037;49.488;9.900;2023-03-11T05:42:04;4.70;59.60
39325;DHT22;25037;49.488;9.900;2023-03-11T05:44:31;4.70;59.60
39325;DHT22;25037;49.488;9.900;2023-03-11T05:46:59;4.70;59.50
39325;DHT22;25037;49.488;9.900;2023-03-11T05:49:26;4.70;59.60
39325;DHT22;25037;49.488;9.900;2023-03-11T05:51:53;4.70;59.70
39325;DHT22;25037;49.488;9.900;2023-03-11T05:54:23;4.70;59.70
39325;DHT22;25037;49.488;9.900;2023-03-11T05:56:50;4.70;59.70
39325;DHT22;25037;49.488;9.900;2023-03-11T05:59:17;4.80;59.70
39325;DHT22;25037;49.488;9.900;2023-03-11T06:01:44;4.80;59.60
39325;DHT22;25037;49.488;9.900;2023-03-11T06:04:11;4.80;59.70
39325;DHT22;25037;49.488;9.900;2023-03-11T06:06:38;4.80;59.70
39325;DHT22;25037;49.488;9.900;2023-03-11T06:09:12;4.80;59.60
39325;DHT22;25037;49.488;9.900;2023-03-11T06:11:39;4.80;59.40
39325;DHT22;25037;49.488;9.900;2023-03-11T06:14:06;4.80;59.60
39325;DHT22;25037;49.488;9.900;2023-03-11T06:16:35;4.80;59.80
39325;DHT22;25037;49.488;9.900;2023-03-11T06:19:02;4.80;59.70
39325;DHT22;25037;49.488;9.900;2023-03-11T06:21:28;4.80;59.60
39325;DHT22;25037;49.488;9.900;2023-03-11T06:23:55;4.80;59.60
39325;DHT22;25037;49.488;9.900;2023-03-11T06:26:22;4.80;59.70
39325;DHT22;25037;49.488;9.900;2023-03-11T06:28:50;4.90;59.70
39325;DHT22;25037;49.488;9.900;2023-03-11T06:31:27;4.90;59.60
39325;DHT22;25037;49.488;9.900;2023-03-11T06:33:55;5.00;59.50
39325;DHT22;25037;49.488;9.900;2023-03-11T06:36:22;5.00;59.50
39325;DHT22;25037;49.488;9.900;2023-03-11T06:38:51;5.00;59.60
39325;DHT22;25037;49.488;9.900;2023-03-11T06:41:18;5.00;59.50
39325;DHT22;25037;49.488;9.900;2023-03-11T06:43:45;5.00;59.50
39325;DHT22;25037;49.488;9.900;2023-03-11T06:46:16;5.00;59.50
39325;DHT22;25037;49.488;9.900;2023-03-11T06:48:43;5.00;59.40
39325;DHT22;25037;49.488;9.900;2023-03-11T06:51:11;5.00;59.50
39325;DHT22;25037;49.488;9.900;2023-03-11T06:53:38;5.10;59.50
39325;DHT22;25037;49.488;9.900;2023-03-11T06:56:07;5.10;59.50
39325;DHT22;25037;49.488;9.900;2023-03-11T06:58:36;5.10;59.60
39325;DHT22;25037;49.488;9.900;2023-03-11T07:03:32;5.30;59.50
39325;DHT22;25037;49.488;9.900;2023-03-11T07:05:59;5.30;59.30
39325;DHT22;25037;49.488;9.900;2023-03-11T07:08:26;5.30;59.30
39325;DHT22;25037;49.488;9.900;2023-03-11T07:11:01;5.40;59.30
39325;DHT22;25037;49.488;9.900;2023-03-11T07:13:28;5.50;59.30
39325;DHT22;25037;49.488;9.900;2023-03-11T07:16:05;5.60;59.10
39325;DHT22;25037;49.488;9.900;2023-03-11T07:18:34;5.70;58.90
39325;DHT22;25037;49.488;9.900;2023-03-11T07:21:02;5.80;58.90
39325;DHT22;25037;49.488;9.900;2023-03-11T07:23:29;5.90;58.70
39325;DHT22;25037;49.488;9.900;2023-03-11T07:25:56;6.00;58.70
39325;DHT22;25037;49.488;9.900;2023-03-11T07:28:24;6.20;58.20
39325;DHT22;25037;49.488;9.900;2023-03-11T07:30:51;6.30;57.90
39325;DHT22;25037;49.488;9.900;2023-03-11T07:33:19;6.40;58.00
39325;DHT22;25037;49.488;9.900;2023-03-11T07:35:46;6.50;57.90
39325;DHT22;25037;49.488;9.900;2023-03-11T07:38:15;6.60;57.60
39325;DHT22;25037;49.488;9.900;2023-03-11T07:40:43;6.70;57.20
39325;DHT22;25037;49.488;9.900;2023-03-11T07:43:10;6.70;57.10
39325;DHT22;25037;49.488;9.900;2023-03-11T07:45:37;6.80;57.10
39325;DHT22;25037;49.488;9.900;2023-03-11T07:48:04;6.90;57.10
39325;DHT22;25037;49.488;9.900;2023-03-11T07:50:30;7.00;56.80
39325;DHT22;25037;49.488;9.900;2023-03-11T07:52:57;7.10;56.60
39325;DHT22;25037;49.488;9.900;2023-03-11T07:55:24;7.20;56.50
39325;DHT22;25037;49.488;9.900;2023-03-11T07:57:50;7.40;56.20
39325;DHT22;25037;49.488;9.900;2023-03-11T08:00:18;7.50;55.90
39325;DHT22;25037;49.488;9.900;2023-03-11T08:02:45;7.60;55.60
39325;DHT22;25037;49.488;9.900;2023-03-11T08:05:12;7.60;55.40
39325;DHT22;25037;49.488;9.900;2023-03-11T08:07:38;7.60;55.40
39325;DHT22;25037;49.488;9.900;2023-03-11T08:10:05;7.80;55.30
39325;DHT22;25037;49.488;9.900;2023-03-11T08:12:32;7.80;54.90
39325;DHT22;25037;49.488;9.900;2023-03-11T08:14:59;7.90;54.40
39325;DHT22;25037;49.488;9.900;2023-03-11T08:17:26;8.00;54.00
39325;DHT22;25037;49.488;9.900;2023-03-11T08:19:52;8.00;54.00
39325;DHT22;25037;49.488;9.900;2023-03-11T08:22:19;8.00;53.80
39325;DHT22;25037;49.488;9.900;2023-03-11T08:24:50;8.10;53.80
39325;DHT22;25037;49.488;9.900;2023-03-11T08:27:17;8.10;52.90
39325;DHT22;25037;49.488;9.900;2023-03-11T08:29:43;8.00;52.90
39325;DHT22;25037;49.488;9.900;2023-03-11T08:32:10;7.90;52.30
39325;DHT22;25037;49.488;9.900;2023-03-11T08:34:37;7.60;52.70
39325;DHT22;25037;49.488;9.900;2023-03-11T08:37:05;7.50;53.00
39325;DHT22;25037;49.488;9.900;2023-03-11T08:39:32;7.50;53.20
39325;DHT22;25037;49.488;9.900;2023-03-11T08:41:58;7.70;53.20
39325;DHT22;25037;49.488;9.900;2023-03-11T08:44:25;7.90;53.10
39325;DHT22;25037;49.488;9.900;2023-03-11T08:46:52;8.30;52.50
39325;DHT22;25037;49.488;9.900;2023-03-11T08:49:19;8.60;52.40
39325;DHT22;25037;49.488;9.900;2023-03-11T08:51:45;9.00;51.80
39325;DHT22;25037;49.488;9.900;2023-03-11T08:54:12;9.10;50.90
39325;DHT22;25037;49.488;9.900;2023-03-11T08:56:39;9.10;50.70
39325;DHT22;25037;49.488;9.900;2023-03-11T08:59:05;9.30;50.40
39325;DHT22;25037;49.488;9.900;2023-03-11T09:01:34;9.40;50.20
39325;DHT22;25037;49.488;9.900;2023-03-11T09:04:00;9.60;49.90
39325;DHT22;25037;49.488;9.900;2023-03-11T09:06:27;10.00;49.70
39325;DHT22;25037;49.488;9.900;2023-03-11T09:08:56;10.30;49.30
39325;DHT22;25037;49.488;9.900;2023-03-11T09:11:23;10.70;48.80
39325;DHT22;25037;49.488;9.900;2023-03-11T09:13:50;11.00;48.50
39325;DHT22;25037;49.488;9.900;2023-03-11T09:16:20;11.00;48.20
39325;DHT22;25037;49.488;9.900;2023-03-11T09:18:47;11.00;47.90
39325;DHT22;25037;49.488;9.900;2023-03-11T09:21:13;10.70;47.20
39325;DHT22;25037;49.488;9.900;2023-03-11T09:23:40;10.30;47.20
39325;DHT22;25037;49.488;9.900;2023-03-11T09:26:10;10.10;47.50
39325;DHT22;25037;49.488;9.900;2023-03-11T09:28:37;9.80;47.80
39325;DHT22;25037;49.488;9.900;2023-03-11T09:31:03;9.60;47.80
39325;DHT22;25037;49.488;9.900;2023-03-11T09:33:30;9.50;48.20
39325;DHT22;25037;49.488;9.900;2023-03-11T09:35:57;9.50;48.50
39325;DHT22;25037;49.488;9.900;2023-03-11T09:38:24;9.50;48.10
39325;DHT22;25037;49.488;9.900;2023-03-11T09:43:54;9.30;47.70
39325;DHT22;25037;49.488;9.900;2023-03-11T09:49:24;9.20;48.40
39325;DHT22;25037;49.488;9.900;2023-03-11T09:52:05;9.20;48.70
39325;DHT22;25037;49.488;9.900;2023-03-11T09:54:37;9.20;48.20
39325;DHT22;25037;49.488;9.900;2023-03-11T09:57:05;9.20;48.30
39325;DHT22;25037;49.488;9.900;2023-03-11T09:59:36;9.20;48.10
39325;DHT22;25037;49.488;9.900;2023-03-11T10:02:04;9.10;48.00
39325;DHT22;25037;49.488;9.900;2023-03-11T10:04:41;9.10;48.10
39325;DHT22;25037;49.488;9.900;2023-03-11T10:07:15;9.20;48.20
39325;DHT22;25037;49.488;9.900;2023-03-11T10:09:55;9.20;47.90
39325;DHT22;25037;49.488;9.900;2023-03-11T10:15:12;9.10;48.40
39325;DHT22;25037;49.488;9.900;2023-03-11T10:18:17;9.20;48.20
39325;DHT22;25037;49.488;9.900;2023-03-11T10:21:27;9.10;47.80
39325;DHT22;25037;49.488;9.900;2023-03-11T10:24:04;9.10;48.10
39325;DHT22;25037;49.488;9.900;2023-03-11T10:26:41;9.10;48.30
39325;DHT22;25037;49.488;9.900;2023-03-11T10:31:40;9.10;48.70
39325;DHT22;25037;49.488;9.900;2023-03-11T10:34:25;9.20;48.30
39325;DHT22;25037;49.488;9.900;2023-03-11T10:39:31;9.20;48.10
39325;DHT22;25037;49.488;9.900;2023-03-11T10:42:09;9.20;48.50
39325;DHT22;25037;49.488;9.900;2023-03-11T10:44:39;9.20;48.60
39325;DHT22;25037;49.488;9.900;2023-03-11T10:47:16;9.40;48.20
39325;DHT22;25037;49.488;9.900;2023-03-11T10:49:43;9.50;47.70
39325;DHT22;25037;49.488;9.900;2023-03-11T10:52:10;9.70;47.80
39325;DHT22;25037;49.488;9.900;2023-03-11T10:54:39;9.70;47.40
39325;DHT22;25037;49.488;9.900;2023-03-11T10:57:23;9.90;46.50
39325;DHT22;25037;49.488;9.900;2023-03-11T10:59:58;10.30;46.00
39325;DHT22;25037;49.488;9.900;2023-03-11T11:02:39;10.60;45.70
39325;DHT22;25037;49.488;9.900;2023-03-11T11:07:47;10.90;45.40
39325;DHT22;25037;49.488;9.900;2023-03-11T11:15:28;10.40;44.60
39325;DHT22;25037;49.488;9.900;2023-03-11T11:17:56;10.20;44.90
39325;DHT22;25037;49.488;9.900;2023-03-11T11:20:25;10.00;45.80
39325;DHT22;25037;49.488;9.900;2023-03-11T11:22:55;10.00;45.60
39325;DHT22;25037;49.488;9.900;2023-03-11T11:25:39;10.10;45.60
39325;DHT22;25037;49.488;9.900;2023-03-11T11:28:18;10.20;45.30
39325;DHT22;25037;49.488;9.900;2023-03-11T11:31:01;10.10;44.90
39325;DHT22;25037;49.488;9.900;2023-03-11T11:33:39;10.00;44.70
39325;DHT22;25037;49.488;9.900;2023-03-11T11:36:12;9.90;44.70
39325;DHT22;25037;49.488;9.900;2023-03-11T11:38:40;9.80;44.90
39325;DHT22;25037;49.488;9.900;2023-03-11T11:41:12;9.70;45.20
39325;DHT22;25037;49.488;9.900;2023-03-11T11:43:55;9.50;45.50
39325;DHT22;25037;49.488;9.900;2023-03-11T11:46:46;9.40;45.60
39325;DHT22;25037;49.488;9.900;2023-03-11T11:49:23;9.30;45.60
39325;DHT22;25037;49.488;9.900;2023-03-11T11:51:58;9.30;45.90
39325;DHT22;25037;49.488;9.900;2023-03-11T11:57:12;9.40;46.00
39325;DHT22;25037;49.488;9.900;2023-03-11T11:59:40;9.50;46.10
39325;DHT22;25037;49.488;9.900;2023-03-11T12:02:45;9.70;46.40
39325;DHT22;25037;49.488;9.900;2023-03-11T12:05:30;9.90;46.10
39325;DHT22;25037;49.488;9.900;2023-03-11T12:11:05;10.30;45.30
39325;DHT22;25037;49.488;9.900;2023-03-11T12:16:44;10.40;45.10
39325;DHT22;25037;49.488;9.900;2023-03-11T12:19:20;10.40;45.00
39325;DHT22;25037;49.488;9.900;2023-03-11T12:22:17;10.30;45.20
39325;DHT22;25037;49.488;9.900;2023-03-11T12:30:40;10.20;45.20
39325;DHT22;25037;49.488;9.900;2023-03-11T12:33:14;10.20;45.20
39325;DHT22;25037;49.488;9.900;2023-03-11T12:35:48;10.20;45.10
39325;DHT22;25037;49.488;9.900;2023-03-11T12:38:31;10.10;45.20
39325;DHT22;25037;49.488;9.900;2023-03-11T12:41:03;10.20;45.40
39325;DHT22;25037;49.488;9.900;2023-03-11T12:48:43;10.10;45.00
39325;DHT22;25037;49.488;9.900;2023-03-11T12:53:56;9.90;45.10
39325;DHT22;25037;49.488;9.900;2023-03-11T12:56:43;9.80;45.40
39325;DHT22;25037;49.488;9.900;2023-03-11T13:10:51;9.50;45.70
39325;DHT22;25037;49.488;9.900;2023-03-11T13:13:40;9.50;45.80
39325;DHT22;25037;49.488;9.900;2023-03-11T13:18:36;9.70;45.30
39325;DHT22;25037;49.488;9.900;2023-03-11T13:21:03;9.70;45.30
39325;DHT22;25037;49.488;9.900;2023-03-11T13:23:36;9.80;45.00
39325;DHT22;25037;49.488;9.900;2023-03-11T13:29:12;9.90;44.80
39325;DHT22;25037;49.488;9.900;2023-03-11T13:37:23;10.00;44.20
39325;DHT22;25037;49.488;9.900;2023-03-11T13:42:49;10.10;44.50
39325;DHT22;25037;49.488;9.900;2023-03-11T13:45:25;10.20;44.30
39325;DHT22;25037;49.488;9.900;2023-03-11T13:47:57;10.30;44.20
39325;DHT22;25037;49.488;9.900;2023-03-11T13:50:40;10.30;44.00
39325;DHT22;25037;49.488;9.900;2023-03-11T13:53:18;10.20;44.10
39325;DHT22;25037;49.488;9.900;2023-03-11T13:55:46;10.20;44.30
39325;DHT22;25037;49.488;9.900;2023-03-11T13:58:20;10.10;44.60
39325;DHT22;25037;49.488;9.900;2023-03-11T14:00:51;10.00;44.40
39325;DHT22;25037;49.488;9.900;2023-03-11T14:03:19;9.90;44.50
39325;DHT22;25037;49.488;9.900;2023-03-11T14:06:07;9.80;44.80
39325;DHT22;25037;49.488;9.900;2023-03-11T14:08:38;9.70;44.60
39325;DHT22;25037;49.488;9.900;2023-03-11T14:13:39;9.40;44.80
39325;DHT22;25037;49.488;9.900;2023-03-11T14:18:42;9.10;44.90
39325;DHT22;25037;49.488;9.900;2023-03-11T14:21:16;9.00;45.10
39325;DHT22;25037;49.488;9.900;2023-03-11T14:23:46;8.90;45.20
39325;DHT22;25037;49.488;9.900;2023-03-11T14:26:19;8.70;45.40
39325;DHT22;25037;49.488;9.900;2023-03-11T14:28:50;8.60;45.50
39325;DHT22;25037;49.488;9.900;2023-03-11T14:31:29;8.60;45.50
39325;DHT22;25037;49.488;9.900;2023-03-11T14:34:14;8.50;45.70
39325;DHT22;25037;49.488;9.900;2023-03-11T14:36:47;8.50;45.90
39325;DHT22;25037;49.488;9.900;2023-03-11T14:39:22;8.50;46.00
39325;DHT22;25037;49.488;9.900;2023-03-11T14:41:57;8.50;45.80
39325;DHT22;25037;49.488;9.900;2023-03-11T14:44:26;8.40;45.80
39325;DHT22;25037;49.488;9.900;2023-03-11T14:47:10;8.30;45.80
39325;DHT22;25037;49.488;9.900;2023-03-11T14:49:38;8.30;46.00
39325;DHT22;25037;49.488;9.900;2023-03-11T14:52:12;8.30;46.10
39325;DHT22;25037;49.488;9.900;2023-03-11T14:54:42;8.30;45.90
39325;DHT22;25037;49.488;9.900;2023-03-11T14:57:18;8.30;45.90
39325;DHT22;25037;49.488;9.900;2023-03-11T14:59:48;8.40;45.50
39325;DHT22;25037;49.488;9.900;2023-03-11T15:02:30;8.40;45.60
39325;DHT22;25037;49.488;9.900;2023-03-11T15:05:03;8.40;45.50
39325;DHT22;25037;49.488;9.900;2023-03-11T15:07:36;8.40;45.60
39325;DHT22;25037;49.488;9.900;2023-03-11T15:10:08;8.50;45.60
39325;DHT22;25037;49.488;9.900;2023-03-11T15:12:41;8.50;45.50
39325;DHT22;25037;49.488;9.900;2023-03-11T15:15:37;8.60;45.50
39325;DHT22;25037;49.488;9.900;2023-03-11T15:18:20;8.60;45.40
39325;DHT22;25037;49.488;9.900;2023-03-11T15:21:00;8.70;45.40
39325;DHT22;25037;49.488;9.900;2023-03-11T15:23:28;8.70;45.20
39325;DHT22;25037;49.488;9.900;2023-03-11T15:25:55;8.60;45.30
39325;DHT22;25037;49.488;9.900;2023-03-11T15:28:24;8.50;45.20
39325;DHT22;25037;49.488;9.900;2023-03-11T15:33:49;8.40;45.10
39325;DHT22;25037;49.488;9.900;2023-03-11T15:36:34;8.30;45.50
39325;DHT22;25037;49.488;9.900;2023-03-11T15:41:45;8.30;45.00
39325;DHT22;25037;49.488;9.900;2023-03-11T15:44:27;8.20;45.10
39325;DHT22;25037;49.488;9.900;2023-03-11T15:46:55;8.20;44.80
39325;DHT22;25037;49.488;9.900;2023-03-11T15:49:21;8.20;45.10
39325;DHT22;25037;49.488;9.900;2023-03-11T15:51:48;8.20;45.10
39325;DHT22;25037;49.488;9.900;2023-03-11T15:54:15;8.30;44.80
39325;DHT22;25037;49.488;9.900;2023-03-11T15:56:42;8.30;44.60
39325;DHT22;25037;49.488;9.900;2023-03-11T15:59:15;8.40;44.60
39325;DHT22;25037;49.488;9.900;2023-03-11T16:01:43;8.50;44.40
39325;DHT22;25037;49.488;9.900;2023-03-11T16:04:12;8.50;44.30
39325;DHT22;25037;49.488;9.900;2023-03-11T16:06:41;8.50;44.10
39325;DHT22;25037;49.488;9.900;2023-03-11T16:09:08;8.50;44.10
39325;DHT22;25037;49.488;9.900;2023-03-11T16:11:36;8.60;44.00
39325;DHT22;25037;49.488;9.900;2023-03-11T16:14:03;8.50;44.00
39325;DHT22;25037;49.488;9.900;2023-03-11T16:16:30;8.50;44.20
39325;DHT22;25037;49.488;9.900;2023-03-11T16:18:57;8.40;44.30
39325;DHT22;25037;49.488;9.900;2023-03-11T16:21:30;8.30;44.40
39325;DHT22;25037;49.488;9.900;2023-03-11T16:23:59;8.20;44.50
39325;DHT22;25037;49.488;9.900;2023-03-11T16:26:26;8.10;44.80
39325;DHT22;25037;49.488;9.900;2023-03-11T16:28:53;8.00;44.90
39325;DHT22;25037;49.488;9.900;2023-03-11T16:31:19;7.90;45.10
39325;DHT22;25037;49.488;9.900;2023-03-11T16:33:46;7.80;45.20
39325;DHT22;25037;49.488;9.900;2023-03-11T16:36:13;7.80;45.40
39325;DHT22;25037;49.488;9.900;2023-03-11T16:38:45;7.70;45.50
39325;DHT22;25037;49.488;9.900;2023-03-11T16:41:13;7.70;45.70
39325;DHT22;25037;49.488;9.900;2023-03-11T16:43:39;7.60;45.90
39325;DHT22;25037;49.488;9.900;2023-03-11T16:46:06;7.60;45.90
39325;DHT22;25037;49.488;9.900;2023-03-11T16:48:33;7.60;46.10
39325;DHT22;25037;49.488;9.900;2023-03-11T16:51:00;7.50;46.10
39325;DHT22;25037;49.488;9.900;2023-03-11T16:53:27;7.50;46.10
39325;DHT22;25037;49.488;9.900;2023-03-11T16:55:54;7.50;46.20
39325;DHT22;25037;49.488;9.900;2023-03-11T16:58:20;7.50;46.20
39325;DHT22;25037;49.488;9.900;2023-03-11T17:00:47;7.40;46.20
39325;DHT22;25037;49.488;9.900;2023-03-11T17:03:15;7.40;46.30
39325;DHT22;25037;49.488;9.900;2023-03-11T17:05:47;7.30;46.50
39325;DHT22;25037;49.488;9.900;2023-03-11T17:08:14;7.30;46.60
39325;DHT22;25037;49.488;9.900;2023-03-11T17:10:43;7.20;46.80
39325;DHT22;25037;49.488;9.900;2023-03-11T17:13:12;7.20;47.00
39325;DHT22;25037;49.488;9.900;2023-03-11T17:15:38;7.10;47.10
39325;DHT22;25037;49.488;9.900;2023-03-11T17:18:07;7.00;47.30
39325;DHT22;25037;49.488;9.900;2023-03-11T17:20:34;7.00;47.50
39325;DHT22;25037;49.488;9.900;2023-03-11T17:23:03;6.90;47.50
39325;DHT22;25037;49.488;9.900;2023-03-11T17:25:30;6.90;47.70
39325;DHT22;25037;49.488;9.900;2023-03-11T17:27:56;6.90;47.80
39325;DHT22;25037;49.488;9.900;2023-03-11T17:30:23;6.80;48.00